Time;durP1;ratioP1;P1;durP2;ratioP2;P2;SDS_P1;SDS_P2;PMS_P1;PMS_P2;Temp;Humidity;BMP_temperature;BMP_pressure;BME280_temperature;BME280_humidity;BME280_pressure;Samples;Min_cycle;Max_cycle;Signal;HPM_P1;HPM_P2
2023/04/16 00:00:17;;;;;;;112.87;52.60;;;9.20;99.90;;;;;;5177090;28;20247;-52
2023/04/16 00:02:48;;;;;;;120.33;52.43;;;9.20;99.90;;;;;;5174942;28;20219;-54
2023/04/16 00:05:19;;;;;;;116.30;52.80;;;9.20;99.90;;;;;;5177991;28;20189;-52
2023/04/16 00:07:50;;;;;;;137.90;52.53;;;9.30;99.90;;;;;;5175300;28;20842;-52
2023/04/16 00:10:21;;;;;;;123.90;51.83;;;9.30;99.90;;;;;;5178885;28;20193;-52
2023/04/16 00:12:51;;;;;;;98.70;47.33;;;9.30;99.90;;;;;;5176448;28;20802;-53
2023/04/16 00:15:22;;;;;;;85.03;43.47;;;9.30;99.90;;;;;;5176223;28;20681;-53
2023/04/16 00:17:53;;;;;;;94.27;49.07;;;9.30;99.90;;;;;;5174643;28;20263;-50
2023/04/16 00:20:23;;;;;;;109.87;49.40;;;9.30;99.90;;;;;;5179913;28;20216;-53
2023/04/16 00:22:54;;;;;;;123.07;53.47;;;9.30;99.90;;;;;;5169440;28;20181;-53
2023/04/16 00:25:24;;;;;;;105.47;49.97;;;9.20;99.90;;;;;;5172537;28;20193;-51
2023/04/16 00:27:55;;;;;;;101.43;46.67;;;9.30;99.90;;;;;;5180405;28;20657;-51
2023/04/16 00:30:26;;;;;;;134.93;54.40;;;9.20;99.90;;;;;;5175171;28;20180;-54
2023/04/16 00:32:56;;;;;;;119.57;49.23;;;9.30;99.90;;;;;;5176083;28;20185;-52
2023/04/16 00:35:27;;;;;;;80.63;43.17;;;9.30;99.90;;;;;;5175929;28;20193;-51
2023/04/16 00:37:57;;;;;;;120.53;50.17;;;9.30;99.90;;;;;;5178394;28;20275;-53
2023/04/16 00:40:29;;;;;;;119.90;52.10;;;9.30;99.90;;;;;;5182392;28;20209;-52
2023/04/16 00:43:00;;;;;;;87.20;43.73;;;9.30;99.90;;;;;;5174489;28;20641;-49
2023/04/16 00:45:30;;;;;;;143.93;56.23;;;9.30;99.90;;;;;;5177511;28;20578;-52
2023/04/16 00:48:02;;;;;;;130.33;50.47;;;9.30;99.90;;;;;;5178800;28;20196;-52
2023/04/16 00:50:33;;;;;;;107.60;46.83;;;9.30;99.90;;;;;;5178389;28;20184;-53
2023/04/16 00:53:04;;;;;;;111.67;49.50;;;9.30;99.90;;;;;;5176235;28;20871;-51
2023/04/16 00:55:35;;;;;;;105.30;48.47;;;9.30;99.90;;;;;;5176592;28;20200;-52
2023/04/16 00:58:06;;;;;;;112.00;48.50;;;9.30;99.90;;;;;;5174819;28;20451;-52
2023/04/16 01:00:36;;;;;;;80.37;41.57;;;9.30;99.90;;;;;;5181056;28;20443;-53
2023/04/16 01:03:08;;;;;;;120.73;49.80;;;9.30;99.90;;;;;;5183585;28;20173;-52
2023/04/16 01:05:39;;;;;;;137.60;53.17;;;9.30;99.90;;;;;;5178595;28;20235;-52
2023/04/16 01:08:17;;;;;;;103.97;47.07;;;9.30;99.90;;;;;;5181770;28;20555;-51
2023/04/16 01:10:48;;;;;;;114.43;49.80;;;9.20;99.90;;;;;;5174938;28;20489;-50
2023/04/16 01:13:19;;;;;;;85.93;42.50;;;9.20;99.90;;;;;;5175422;28;20431;-52
2023/04/16 01:15:49;;;;;;;141.57;53.63;;;9.30;99.90;;;;;;5178825;28;20199;-53
2023/04/16 01:18:21;;;;;;;137.60;55.57;;;9.20;99.90;;;;;;5191657;28;20319;-51
2023/04/16 01:20:52;;;;;;;137.07;51.70;;;9.30;99.90;;;;;;5177200;28;20183;-51
2023/04/16 01:23:23;;;;;;;115.00;48.93;;;9.20;99.90;;;;;;5172457;28;20423;-52
2023/04/16 01:25:53;;;;;;;104.13;48.33;;;9.30;99.90;;;;;;5175466;28;20183;-50
2023/04/16 01:28:24;;;;;;;120.43;49.33;;;9.20;99.90;;;;;;5178675;28;20553;-51
2023/04/16 01:30:55;;;;;;;81.17;40.43;;;9.20;99.90;;;;;;5178975;28;20187;-53
2023/04/16 01:33:25;;;;;;;96.00;43.87;;;9.20;99.90;;;;;;5176729;28;20235;-49
2023/04/16 01:35:56;;;;;;;92.17;42.10;;;9.20;99.90;;;;;;5179000;28;20192;-51
2023/04/16 01:38:27;;;;;;;65.97;35.10;;;9.20;99.90;;;;;;5179691;28;20251;-50
2023/04/16 01:40:58;;;;;;;95.90;44.00;;;9.30;99.90;;;;;;5172293;28;20310;-49
2023/04/16 01:43:29;;;;;;;76.33;40.07;;;9.30;99.90;;;;;;5182579;28;20186;-49
2023/04/16 01:46:23;;;;;;;69.70;35.57;;;9.20;99.90;;;;;;5180986;28;20511;-51
2023/04/16 01:48:54;;;;;;;104.40;43.40;;;9.20;99.90;;;;;;5180538;28;20569;-50
2023/04/16 01:51:26;;;;;;;64.57;34.83;;;9.20;99.90;;;;;;5182957;28;20497;-51
2023/04/16 01:53:57;;;;;;;90.07;42.10;;;9.30;99.90;;;;;;5181742;28;20180;-51
2023/04/16 01:56:27;;;;;;;100.20;47.47;;;9.30;99.90;;;;;;5183464;28;21024;-51
2023/04/16 01:58:58;;;;;;;82.83;38.37;;;9.40;99.90;;;;;;5172837;28;20822;-49
2023/04/16 02:01:29;;;;;;;51.73;29.93;;;9.30;99.90;;;;;;5175284;28;20187;-53
2023/04/16 02:03:59;;;;;;;90.33;40.83;;;9.30;99.90;;;;;;5177846;28;20566;-53
2023/04/16 02:06:30;;;;;;;101.30;43.50;;;9.30;99.90;;;;;;5180825;28;20192;-51
2023/04/16 02:09:01;;;;;;;97.93;44.43;;;9.30;99.90;;;;;;5179090;28;20215;-50
2023/04/16 02:11:31;;;;;;;74.43;39.03;;;9.20;99.90;;;;;;5176624;28;20207;-51
2023/04/16 02:14:02;;;;;;;58.57;31.70;;;9.20;99.90;;;;;;5182673;28;20545;-50
2023/04/16 02:16:32;;;;;;;93.27;42.80;;;9.20;99.90;;;;;;5182906;28;20228;-52
2023/04/16 02:19:03;;;;;;;56.83;33.47;;;9.20;99.90;;;;;;5175281;28;20261;-52
2023/04/16 02:21:34;;;;;;;75.93;38.10;;;9.10;99.90;;;;;;5155695;28;20173;-52
2023/04/16 02:24:04;;;;;;;118.53;47.30;;;9.20;99.90;;;;;;5177125;28;20653;-52
2023/04/16 02:26:35;;;;;;;73.67;38.20;;;9.20;99.90;;;;;;5193745;28;20272;-53
2023/04/16 02:29:06;;;;;;;77.97;38.27;;;9.10;99.90;;;;;;5171800;28;20205;-51
2023/04/16 02:31:37;;;;;;;89.23;40.60;;;9.10;99.90;;;;;;5175641;28;20196;-53
2023/04/16 02:34:07;;;;;;;86.63;43.67;;;9.10;99.90;;;;;;5179675;28;20184;-52
2023/04/16 02:36:38;;;;;;;92.70;43.27;;;9.00;99.90;;;;;;5182272;28;20442;-52
2023/04/16 02:39:09;;;;;;;131.17;51.40;;;9.00;99.90;;;;;;5183179;28;20208;-52
2023/04/16 02:41:39;;;;;;;64.63;36.67;;;9.00;99.90;;;;;;5179656;28;20703;-52
2023/04/16 02:44:10;;;;;;;123.97;48.73;;;9.00;99.90;;;;;;5179033;28;20660;-52
2023/04/16 02:46:41;;;;;;;79.23;38.57;;;9.00;99.90;;;;;;5176995;28;20660;-52
2023/04/16 02:49:11;;;;;;;132.27;54.77;;;9.10;99.90;;;;;;5182099;28;20326;-51
2023/04/16 02:51:42;;;;;;;75.87;39.33;;;9.00;99.90;;;;;;5183077;28;20192;-52
2023/04/16 02:54:12;;;;;;;108.53;47.53;;;9.00;99.90;;;;;;5180857;28;20203;-51
2023/04/16 02:56:43;;;;;;;103.60;45.80;;;9.00;99.90;;;;;;5175519;28;20204;-52
2023/04/16 02:59:14;;;;;;;100.77;47.47;;;9.00;99.90;;;;;;5176715;28;20217;-50
2023/04/16 03:01:45;;;;;;;145.27;56.20;;;9.00;99.90;;;;;;5183648;28;20188;-49
2023/04/16 03:04:15;;;;;;;78.60;40.57;;;9.00;99.90;;;;;;5179250;28;20208;-50
2023/04/16 03:06:46;;;;;;;122.90;48.07;;;9.00;99.90;;;;;;5180291;28;20530;-52
2023/04/16 03:09:16;;;;;;;74.00;38.97;;;9.00;99.90;;;;;;5177855;28;20192;-51
2023/04/16 03:11:47;;;;;;;112.80;48.37;;;9.00;99.90;;;;;;5179533;28;20212;-52
2023/04/16 03:14:18;;;;;;;101.03;48.90;;;9.00;99.90;;;;;;5174680;28;20199;-51
2023/04/16 03:16:48;;;;;;;97.30;47.30;;;8.90;99.90;;;;;;5192015;28;20231;-52
2023/04/16 03:19:19;;;;;;;136.07;54.10;;;8.90;99.90;;;;;;5177872;28;20201;-51
2023/04/16 03:21:49;;;;;;;111.37;49.00;;;8.90;99.90;;;;;;5176032;28;20191;-51
2023/04/16 03:24:20;;;;;;;67.60;38.77;;;8.80;99.90;;;;;;5175419;28;20339;-51
2023/04/16 03:26:51;;;;;;;113.97;50.33;;;8.80;99.90;;;;;;5178626;28;20188;-52
2023/04/16 03:29:21;;;;;;;100.57;47.07;;;8.80;99.90;;;;;;5181039;28;20196;-52
2023/04/16 03:31:52;;;;;;;140.63;54.17;;;8.80;99.90;;;;;;5176727;28;20618;-52
2023/04/16 03:34:22;;;;;;;198.57;60.00;;;8.80;99.90;;;;;;5175051;28;20189;-53
2023/04/16 03:36:53;;;;;;;107.53;44.37;;;8.80;99.90;;;;;;5179798;28;20219;-50
2023/04/16 03:39:24;;;;;;;106.70;46.07;;;8.70;99.90;;;;;;5183079;28;20208;-50
2023/04/16 03:41:54;;;;;;;92.80;40.27;;;8.70;99.90;;;;;;5175540;28;20180;-51
2023/04/16 03:44:25;;;;;;;75.80;38.30;;;8.60;99.90;;;;;;5178642;28;20185;-50
2023/04/16 03:46:56;;;;;;;120.17;47.47;;;8.60;99.90;;;;;;5198596;28;20172;-52
2023/04/16 03:49:26;;;;;;;108.90;48.00;;;8.70;99.90;;;;;;5177652;28;20244;-52
2023/04/16 03:51:57;;;;;;;86.37;43.43;;;8.60;99.90;;;;;;5178861;28;20196;-52
2023/04/16 03:54:27;;;;;;;113.00;48.63;;;8.60;99.90;;;;;;5156528;28;20624;-53
2023/04/16 03:56:58;;;;;;;139.17;51.90;;;8.60;99.90;;;;;;5177423;28;20223;-52
2023/04/16 03:59:29;;;;;;;101.90;45.67;;;8.50;99.90;;;;;;5180001;28;20212;-52
2023/04/16 04:01:59;;;;;;;107.77;46.30;;;8.60;99.90;;;;;;5174865;28;20221;-52
2023/04/16 04:04:30;;;;;;;132.03;51.60;;;8.60;99.90;;;;;;5180073;28;20756;-50
2023/04/16 04:07:00;;;;;;;120.60;48.60;;;8.60;99.90;;;;;;5178780;28;20305;-50
2023/04/16 04:09:32;;;;;;;136.40;49.63;;;8.60;99.90;;;;;;5176939;28;20211;-52
2023/04/16 04:12:03;;;;;;;89.10;38.33;;;8.50;99.90;;;;;;5183196;28;20184;-51
2023/04/16 04:14:38;;;;;;;140.73;48.63;;;8.60;99.90;;;;;;5182836;28;20524;-50
2023/04/16 04:17:09;;;;;;;84.87;37.83;;;8.50;99.90;;;;;;5180348;28;20661;-49
2023/04/16 04:19:39;;;;;;;114.73;47.40;;;8.60;99.90;;;;;;5197998;28;20521;-51
2023/04/16 04:22:10;;;;;;;98.83;42.93;;;8.60;99.90;;;;;;5180277;28;20267;-51
2023/04/16 04:24:41;;;;;;;83.43;38.93;;;8.60;99.90;;;;;;5173059;28;20201;-52
2023/04/16 04:27:11;;;;;;;143.50;52.50;;;8.70;99.90;;;;;;5177990;28;20621;-52
2023/04/16 04:29:42;;;;;;;97.73;43.03;;;8.60;99.90;;;;;;5180166;28;20180;-52
2023/04/16 04:32:12;;;;;;;142.07;49.73;;;8.60;99.90;;;;;;5171925;28;20518;-52
2023/04/16 04:34:43;;;;;;;137.00;51.97;;;8.60;99.90;;;;;;5178104;28;20193;-50
2023/04/16 04:37:14;;;;;;;100.37;46.00;;;8.60;99.90;;;;;;5177931;28;20204;-51
2023/04/16 04:39:45;;;;;;;122.53;46.17;;;8.50;99.90;;;;;;5179196;28;20204;-54
2023/04/16 04:42:20;;;;;;;81.17;39.00;;;8.60;99.90;;;;;;5176284;28;20180;-53
2023/04/16 04:44:50;;;;;;;96.43;42.97;;;8.60;99.90;;;;;;5177304;28;20235;-52
2023/04/16 04:47:21;;;;;;;122.07;48.50;;;8.70;99.90;;;;;;5176965;28;20455;-51
2023/04/16 04:49:52;;;;;;;129.43;49.60;;;8.70;99.90;;;;;;5181956;28;20185;-52
2023/04/16 04:52:22;;;;;;;83.50;41.50;;;8.60;99.90;;;;;;5173607;28;20267;-52
2023/04/16 04:54:53;;;;;;;120.37;47.30;;;8.70;99.90;;;;;;5163113;28;20184;-53
2023/04/16 04:57:23;;;;;;;145.30;53.50;;;8.70;99.90;;;;;;5178679;28;20236;-52
2023/04/16 04:59:54;;;;;;;65.93;34.87;;;8.70;99.90;;;;;;5195656;28;20211;-53
2023/04/16 05:02:25;;;;;;;145.47;53.67;;;8.80;99.90;;;;;;5175555;28;20204;-49
2023/04/16 05:04:55;;;;;;;122.63;48.63;;;8.70;99.90;;;;;;5180924;28;20190;-51
2023/04/16 05:07:26;;;;;;;118.67;48.37;;;8.70;99.90;;;;;;5178759;28;20208;-49
2023/04/16 05:09:56;;;;;;;154.77;50.27;;;8.70;99.90;;;;;;5176304;28;20192;-48
2023/04/16 05:12:27;;;;;;;109.50;42.80;;;8.70;99.90;;;;;;5176772;28;20212;-49
2023/04/16 05:14:58;;;;;;;148.77;50.93;;;8.70;99.90;;;;;;5176921;28;20248;-50
2023/04/16 05:17:28;;;;;;;176.50;55.40;;;8.60;99.90;;;;;;5178523;28;20218;-49
2023/04/16 05:19:59;;;;;;;123.23;45.60;;;8.70;99.90;;;;;;5176142;28;20208;-49
2023/04/16 05:22:30;;;;;;;138.73;50.70;;;8.60;99.90;;;;;;5180810;28;20188;-48
2023/04/16 05:25:01;;;;;;;120.43;45.93;;;8.50;99.90;;;;;;5179021;28;20431;-50
2023/04/16 05:27:32;;;;;;;135.57;50.93;;;8.50;99.90;;;;;;5179269;28;20196;-49
2023/04/16 05:30:03;;;;;;;85.03;39.40;;;8.50;99.90;;;;;;5175670;28;20450;-51
2023/04/16 05:32:34;;;;;;;115.70;47.60;;;8.50;99.90;;;;;;5182375;28;20194;-48
2023/04/16 05:35:05;;;;;;;143.60;51.13;;;8.50;99.90;;;;;;5175526;28;20439;-48
2023/04/16 05:37:35;;;;;;;119.50;44.50;;;8.50;99.90;;;;;;5169345;28;20294;-48
2023/04/16 05:40:07;;;;;;;125.03;50.20;;;8.60;99.90;;;;;;5196309;28;20569;-48
2023/04/16 05:42:37;;;;;;;113.70;46.40;;;8.60;99.90;;;;;;5174120;28;20695;-49
2023/04/16 05:45:08;;;;;;;94.57;40.60;;;8.60;99.90;;;;;;5180015;28;20468;-49
2023/04/16 05:47:39;;;;;;;182.40;55.07;;;8.60;99.90;;;;;;5170270;28;20224;-49
2023/04/16 05:50:10;;;;;;;108.97;45.47;;;8.60;99.90;;;;;;5179435;28;20597;-49
2023/04/16 05:52:40;;;;;;;116.87;46.20;;;8.60;99.90;;;;;;5174481;28;20208;-51
2023/04/16 05:55:11;;;;;;;79.73;37.13;;;8.60;99.90;;;;;;5181487;28;20206;-49
2023/04/16 05:57:41;;;;;;;67.70;35.57;;;8.60;99.90;;;;;;5176599;28;20203;-50
2023/04/16 06:00:12;;;;;;;120.87;45.63;;;8.70;99.90;;;;;;5177854;28;20263;-51
2023/04/16 06:02:43;;;;;;;117.80;42.57;;;8.80;99.90;;;;;;5179052;28;20196;-49
2023/04/16 06:05:13;;;;;;;91.10;41.90;;;8.80;99.90;;;;;;5177647;28;20188;-50
2023/04/16 06:07:44;;;;;;;119.50;41.40;;;8.80;99.90;;;;;;5175420;28;20570;-50
2023/04/16 06:10:15;;;;;;;78.87;36.10;;;8.80;99.90;;;;;;5178311;28;20534;-50
2023/04/16 06:12:45;;;;;;;109.07;42.60;;;8.90;99.90;;;;;;5186024;28;20196;-48
2023/04/16 06:15:16;;;;;;;76.33;36.80;;;8.90;99.90;;;;;;5185261;28;20223;-48
2023/04/16 06:17:46;;;;;;;102.17;37.60;;;8.80;99.90;;;;;;5183342;28;20307;-49
2023/04/16 06:20:17;;;;;;;122.03;43.93;;;8.80;99.90;;;;;;5186059;28;20204;-50
2023/04/16 06:22:48;;;;;;;148.50;51.80;;;8.80;99.90;;;;;;5180392;28;20199;-47
2023/04/16 06:25:18;;;;;;;70.87;34.13;;;8.80;99.90;;;;;;5179376;28;20193;-49
2023/04/16 06:27:49;;;;;;;107.57;42.37;;;8.80;99.90;;;;;;5183619;28;20250;-50
2023/04/16 06:30:20;;;;;;;105.83;43.37;;;8.90;99.90;;;;;;5182355;28;20188;-48
2023/04/16 06:32:50;;;;;;;81.70;37.00;;;8.80;99.90;;;;;;5181871;28;20222;-49
2023/04/16 06:35:21;;;;;;;90.37;40.60;;;8.80;99.90;;;;;;5184814;28;20188;-48
2023/04/16 06:37:51;;;;;;;144.83;49.60;;;8.80;99.90;;;;;;5182040;28;20261;-48
2023/04/16 06:40:22;;;;;;;90.93;36.73;;;8.80;99.90;;;;;;5181122;28;20298;-49
2023/04/16 06:42:53;;;;;;;83.13;37.20;;;8.70;99.90;;;;;;5175843;28;20553;-49
2023/04/16 06:45:23;;;;;;;120.87;43.30;;;8.80;99.90;;;;;;5177177;28;20635;-49
2023/04/16 06:47:54;;;;;;;105.93;42.87;;;8.80;99.90;;;;;;5180667;28;20204;-50
2023/04/16 06:50:27;;;;;;;72.73;32.73;;;8.80;99.90;;;;;;5185873;28;20548;-48
2023/04/16 06:52:57;;;;;;;92.47;38.40;;;8.90;99.90;;;;;;5181731;28;20583;-49
2023/04/16 06:55:28;;;;;;;116.47;42.77;;;8.90;99.90;;;;;;5186504;28;20537;-50
2023/04/16 06:57:58;;;;;;;93.43;38.00;;;9.00;99.90;;;;;;5186639;28;20203;-49
2023/04/16 07:00:29;;;;;;;98.53;37.90;;;8.90;99.90;;;;;;5180894;28;20250;-48
2023/04/16 07:03:00;;;;;;;123.40;45.27;;;9.00;99.90;;;;;;5177974;28;20180;-51
2023/04/16 07:05:30;;;;;;;108.47;39.90;;;9.10;99.90;;;;;;5178982;28;20215;-51
2023/04/16 07:08:01;;;;;;;90.43;37.50;;;9.20;99.90;;;;;;5175126;28;20204;-48
2023/04/16 07:10:32;;;;;;;61.63;31.37;;;9.10;99.90;;;;;;5180493;28;20220;-48
2023/04/16 07:13:02;;;;;;;85.70;36.60;;;9.10;99.90;;;;;;5185304;28;20260;-47
2023/04/16 07:15:33;;;;;;;93.20;39.67;;;9.20;99.90;;;;;;5183930;28;20188;-48
2023/04/16 07:18:03;;;;;;;71.77;36.20;;;9.00;99.90;;;;;;5181811;28;20288;-49
2023/04/16 07:20:35;;;;;;;68.43;31.70;;;9.10;99.90;;;;;;5184628;28;20220;-49
2023/04/16 07:23:05;;;;;;;64.40;31.63;;;9.10;99.90;;;;;;5184614;28;20195;-49
2023/04/16 07:25:36;;;;;;;106.73;39.60;;;9.10;99.90;;;;;;5184601;28;20799;-47
2023/04/16 07:28:07;;;;;;;73.67;34.17;;;9.10;99.90;;;;;;5169348;28;20674;-49
2023/04/16 07:30:37;;;;;;;91.40;38.20;;;9.10;99.90;;;;;;5171741;28;20327;-49
2023/04/16 07:33:08;;;;;;;74.00;35.00;;;8.90;99.90;;;;;;5178318;28;20268;-50
2023/04/16 07:35:39;;;;;;;65.83;31.23;;;8.90;99.90;;;;;;5178210;28;20216;-49
2023/04/16 07:38:09;;;;;;;100.17;39.27;;;9.00;99.90;;;;;;5178226;28;20208;-50
2023/04/16 07:40:40;;;;;;;59.80;31.57;;;9.00;99.90;;;;;;5180142;28;20227;-49
2023/04/16 07:43:10;;;;;;;74.37;33.60;;;9.10;99.90;;;;;;5180292;28;20188;-51
2023/04/16 07:45:41;;;;;;;76.27;33.97;;;9.10;99.90;;;;;;5178687;28;20284;-48
2023/04/16 07:48:12;;;;;;;95.00;35.73;;;9.20;99.90;;;;;;5178255;28;20227;-50
2023/04/16 07:50:43;;;;;;;63.20;32.53;;;9.30;99.90;;;;;;5179339;28;20184;-49
2023/04/16 07:53:13;;;;;;;63.00;32.63;;;9.20;99.90;;;;;;5182564;28;20184;-48
2023/04/16 07:55:44;;;;;;;70.53;33.73;;;9.30;99.90;;;;;;5178547;28;20192;-49
2023/04/16 07:58:15;;;;;;;75.50;34.30;;;9.30;99.90;;;;;;5175900;28;20213;-48
2023/04/16 08:00:45;;;;;;;94.20;36.87;;;9.30;99.90;;;;;;5180886;28;20204;-47
2023/04/16 08:03:16;;;;;;;77.27;36.40;;;9.20;99.90;;;;;;5183461;28;20237;-47
2023/04/16 08:05:47;;;;;;;82.43;36.10;;;9.10;99.90;;;;;;5178198;28;20189;-47
2023/04/16 08:08:18;;;;;;;56.63;29.17;;;9.10;99.90;;;;;;5178315;28;20947;-54
2023/04/16 08:10:48;;;;;;;75.23;33.23;;;9.10;99.90;;;;;;5176527;28;20274;-47
2023/04/16 08:13:19;;;;;;;79.77;34.87;;;9.10;99.90;;;;;;5184818;28;20527;-50
2023/04/16 08:15:50;;;;;;;56.87;31.07;;;9.20;99.90;;;;;;5177253;28;20565;-50
2023/04/16 08:18:20;;;;;;;91.67;35.40;;;9.20;99.90;;;;;;5173584;28;20216;-49
2023/04/16 08:20:51;;;;;;;93.47;35.30;;;9.20;99.90;;;;;;5174530;28;20220;-49
2023/04/16 08:23:21;;;;;;;89.40;36.30;;;9.10;99.90;;;;;;5171593;28;20180;-48
2023/04/16 08:25:53;;;;;;;63.80;28.00;;;9.30;99.90;;;;;;5186815;28;20892;-48
2023/04/16 08:28:23;;;;;;;74.97;33.93;;;9.20;99.90;;;;;;5175490;28;20208;-49
2023/04/16 08:30:54;;;;;;;65.83;32.77;;;9.20;99.90;;;;;;5171818;28;20435;-46
2023/04/16 08:33:25;;;;;;;65.10;30.53;;;9.10;99.90;;;;;;5169931;28;20173;-48
2023/04/16 08:35:55;;;;;;;58.03;30.07;;;9.10;99.90;;;;;;5175853;28;20298;-48
2023/04/16 08:38:26;;;;;;;52.57;26.97;;;9.10;99.90;;;;;;5175162;28;20219;-49
2023/04/16 08:41:01;;;;;;;78.80;34.50;;;9.10;99.90;;;;;;5179527;28;20195;-50
2023/04/16 08:43:36;;;;;;;69.77;30.90;;;9.20;99.90;;;;;;5177000;28;20184;-49
2023/04/16 08:46:07;;;;;;;75.70;33.47;;;9.20;99.90;;;;;;5189909;28;20439;-49
2023/04/16 08:48:42;;;;;;;61.43;30.90;;;9.20;99.90;;;;;;5175364;28;20458;-48
2023/04/16 08:51:16;;;;;;;81.37;37.50;;;9.30;99.90;;;;;;5173000;28;21041;-49
2023/04/16 08:54:04;;;;;;;86.60;34.23;;;9.30;99.90;;;;;;5173593;28;20627;-50
2023/04/16 08:56:36;;;;;;;60.57;30.87;;;9.30;99.90;;;;;;5180774;28;20506;-49
2023/04/16 08:59:08;;;;;;;77.17;36.20;;;9.30;99.90;;;;;;5173259;28;20558;-51
2023/04/16 09:01:40;;;;;;;80.47;37.23;;;9.30;99.90;;;;;;5171505;28;20448;-50
2023/04/16 09:04:13;;;;;;;86.70;39.87;;;9.30;99.90;;;;;;5162251;28;21431;-48
2023/04/16 09:06:46;;;;;;;81.57;37.20;;;9.40;99.90;;;;;;5175872;28;20467;-49
2023/04/16 09:09:18;;;;;;;81.43;33.97;;;9.40;99.90;;;;;;5169000;28;20530;-49
2023/04/16 09:11:53;;;;;;;52.10;28.30;;;9.50;99.90;;;;;;5174852;28;20457;-49
2023/04/16 09:14:25;;;;;;;51.37;29.77;;;9.70;99.90;;;;;;5171024;28;20919;-51
2023/04/16 09:16:59;;;;;;;55.03;28.80;;;9.80;99.90;;;;;;5173937;28;20528;-50
2023/04/16 09:19:30;;;;;;;54.23;30.17;;;9.90;99.90;;;;;;5170367;28;20931;-51
2023/04/16 09:22:01;;;;;;;66.53;31.27;;;9.90;99.90;;;;;;5179154;28;20435;-50
2023/04/16 09:24:32;;;;;;;50.80;28.93;;;9.90;99.90;;;;;;5173893;28;20200;-50
2023/04/16 09:27:04;;;;;;;69.47;31.83;;;9.80;99.90;;;;;;5180087;28;20619;-50
2023/04/16 09:29:39;;;;;;;62.73;30.97;;;9.70;99.90;;;;;;5179657;28;20522;-48
2023/04/16 09:32:11;;;;;;;67.00;29.53;;;9.60;99.90;;;;;;5175069;28;20462;-48
2023/04/16 09:34:58;;;;;;;42.87;23.93;;;9.60;99.90;;;;;;5179921;28;20712;-49
2023/04/16 09:37:30;;;;;;;52.50;29.27;;;9.60;99.90;;;;;;5159278;28;20467;-48
2023/04/16 09:40:02;;;;;;;56.00;29.13;;;9.60;99.90;;;;;;5172509;28;20828;-50
2023/04/16 09:42:35;;;;;;;46.47;26.90;;;9.50;99.90;;;;;;5179331;28;20904;-50
2023/04/16 09:45:06;;;;;;;55.90;30.10;;;9.60;99.90;;;;;;5178375;28;20540;-49
2023/04/16 09:47:45;;;;;;;56.13;30.17;;;9.60;99.90;;;;;;5180952;28;20550;-49
2023/04/16 09:50:17;;;;;;;58.30;29.80;;;9.50;99.90;;;;;;5179503;28;20562;-49
2023/04/16 09:52:50;;;;;;;59.00;30.57;;;9.50;99.90;;;;;;5176327;28;20468;-51
2023/04/16 09:55:26;;;;;;;86.40;35.37;;;9.50;99.90;;;;;;5161218;28;20450;-51
2023/04/16 09:58:01;;;;;;;77.67;34.00;;;9.70;99.90;;;;;;5172408;28;20581;-51
2023/04/16 10:00:31;;;;;;;77.20;36.20;;;9.70;99.90;;;;;;5163951;28;20633;-50
2023/04/16 10:03:05;;;;;;;81.93;37.27;;;9.60;99.90;;;;;;5171734;28;20443;-49
2023/04/16 10:05:36;;;;;;;137.23;45.90;;;9.80;99.90;;;;;;5174430;28;20189;-50
2023/04/16 10:08:16;;;;;;;81.23;39.20;;;9.90;99.90;;;;;;5177275;28;21010;-52
2023/04/16 10:10:46;;;;;;;87.83;37.60;;;10.00;99.90;;;;;;5173693;28;20675;-50
2023/04/16 10:13:18;;;;;;;61.30;31.03;;;9.90;99.90;;;;;;5174388;28;20439;-50
2023/04/16 10:15:49;;;;;;;59.47;33.47;;;9.80;99.90;;;;;;5172173;28;20180;-51
2023/04/16 10:18:21;;;;;;;78.70;37.30;;;9.80;99.90;;;;;;5172690;28;20463;-49
2023/04/16 10:20:52;;;;;;;60.50;32.20;;;9.80;99.90;;;;;;5180197;28;20467;-52
2023/04/16 10:23:22;;;;;;;67.07;34.30;;;9.80;99.90;;;;;;5182192;28;20431;-51
2023/04/16 10:25:54;;;;;;;63.67;34.57;;;10.00;99.90;;;;;;5175133;28;20434;-49
2023/04/16 10:28:25;;;;;;;94.97;40.80;;;10.10;99.90;;;;;;5183150;28;20243;-49
2023/04/16 10:30:58;;;;;;;90.03;40.40;;;10.00;99.90;;;;;;5174804;28;20469;-48
2023/04/16 10:33:32;;;;;;;67.10;35.43;;;10.00;99.90;;;;;;5176441;28;20466;-50
2023/04/16 10:36:21;;;;;;;59.10;33.30;;;10.10;99.90;;;;;;5175265;28;20459;-49
2023/04/16 10:38:56;;;;;;;69.97;34.30;;;10.20;99.90;;;;;;5179651;28;20558;-47
2023/04/16 10:41:27;;;;;;;59.63;33.03;;;10.10;99.90;;;;;;5174186;28;20439;-50
2023/04/16 10:44:08;;;;;;;86.23;37.97;;;9.90;99.90;;;;;;5178393;28;20613;-49
2023/04/16 10:46:40;;;;;;;54.43;31.40;;;10.00;99.90;;;;;;5175754;28;20238;-49
2023/04/16 10:49:29;;;;;;;75.93;37.03;;;10.10;99.90;;;;;;5180222;28;20435;-50
2023/04/16 10:52:06;;;;;;;68.87;35.37;;;10.20;99.90;;;;;;5180044;28;20792;-49
2023/04/16 10:54:37;;;;;;;59.03;33.53;;;10.20;99.90;;;;;;5172634;28;20431;-51
2023/04/16 10:57:13;;;;;;;46.47;28.57;;;10.20;99.90;;;;;;5181065;28;20498;-51
2023/04/16 10:59:44;;;;;;;52.83;32.00;;;10.30;99.90;;;;;;5186316;28;20819;-50
2023/04/16 11:02:16;;;;;;;69.80;37.70;;;10.70;99.90;;;;;;5182880;28;20497;-52
2023/04/16 11:04:48;;;;;;;59.27;32.60;;;11.10;99.90;;;;;;5184435;28;20437;-49
2023/04/16 11:07:20;;;;;;;59.07;34.60;;;11.50;99.90;;;;;;5176468;28;20465;-53
2023/04/16 11:09:55;;;;;;;41.40;27.07;;;11.90;99.90;;;;;;5188327;28;20543;-49
2023/04/16 11:12:34;;;;;;;35.40;23.13;;;12.10;99.90;;;;;;5180845;28;20533;-52
2023/04/16 11:15:10;;;;;;;33.43;21.30;;;11.90;99.90;;;;;;5181185;28;20517;-50
2023/04/16 11:17:42;;;;;;;27.63;20.40;;;11.60;99.90;;;;;;5184277;28;20463;-50
2023/04/16 11:20:21;;;;;;;34.30;23.30;;;11.40;99.90;;;;;;5175857;28;20470;-53
2023/04/16 11:22:54;;;;;;;31.27;23.77;;;11.20;99.90;;;;;;5194009;28;20808;-49
2023/04/16 11:25:29;;;;;;;37.70;26.77;;;10.70;99.90;;;;;;5178142;28;20439;-54
2023/04/16 11:28:01;;;;;;;38.73;26.50;;;10.40;99.90;;;;;;5178648;28;20493;-50
2023/04/16 11:30:34;;;;;;;41.00;27.20;;;10.30;99.90;;;;;;5179570;28;20443;-52
2023/04/16 11:33:08;;;;;;;48.87;29.50;;;10.40;99.90;;;;;;5173725;28;21017;-48
2023/04/16 11:35:38;;;;;;;40.70;27.00;;;10.30;99.90;;;;;;5170265;28;20448;-52
2023/04/16 11:38:09;;;;;;;37.20;24.60;;;10.40;99.90;;;;;;5176757;28;20447;-54
2023/04/16 11:40:41;;;;;;;42.67;26.03;;;10.50;99.90;;;;;;5189067;28;20708;-51
2023/04/16 11:43:15;;;;;;;30.97;24.10;;;10.60;99.90;;;;;;5175936;28;20257;-49
2023/04/16 11:46:00;;;;;;;34.83;24.77;;;10.60;99.90;;;;;;5176939;28;20469;-49
2023/04/16 11:48:54;;;;;;;33.53;23.27;;;10.70;99.90;;;;;;5194394;28;20524;-50
2023/04/16 11:51:25;;;;;;;31.03;19.90;;;10.90;99.90;;;;;;5175214;28;20440;-49
2023/04/16 11:53:57;;;;;;;36.30;21.33;;;10.90;99.90;;;;;;5174868;28;20459;-48
2023/04/16 11:56:29;;;;;;;23.80;18.30;;;10.90;99.90;;;;;;5178086;28;20197;-50
2023/04/16 11:59:10;;;;;;;31.97;20.77;;;10.90;99.90;;;;;;5185118;28;21319;-52
2023/04/16 12:01:45;;;;;;;26.87;17.37;;;10.80;99.90;;;;;;5177757;28;20466;-51
2023/04/16 12:04:21;;;;;;;23.27;18.37;;;10.70;99.90;;;;;;5177440;28;20440;-49
2023/04/16 12:07:11;;;;;;;23.57;18.37;;;10.60;99.90;;;;;;5170116;28;20936;-53
2023/04/16 12:09:42;;;;;;;24.60;16.90;;;10.60;99.90;;;;;;5173925;28;20508;-49
2023/04/16 12:12:29;;;;;;;17.97;15.40;;;10.60;99.90;;;;;;5173667;28;20436;-49
2023/04/16 12:15:03;;;;;;;20.60;15.83;;;10.60;99.90;;;;;;5178809;28;20550;-49
2023/04/16 12:17:35;;;;;;;17.30;14.90;;;10.50;99.90;;;;;;5178028;28;20467;-50
2023/04/16 12:20:10;;;;;;;17.07;15.27;;;10.50;99.90;;;;;;5177289;28;20558;-49
2023/04/16 12:22:46;;;;;;;19.57;14.17;;;10.50;99.90;;;;;;5175478;28;20440;-50
2023/04/16 12:25:17;;;;;;;18.33;13.23;;;10.50;99.90;;;;;;5171655;28;20526;-51
2023/04/16 12:27:50;;;;;;;17.90;13.97;;;10.60;99.90;;;;;;5172676;28;20478;-48
2023/04/16 12:30:23;;;;;;;22.73;13.90;;;10.60;99.90;;;;;;5178328;28;20224;-52
2023/04/16 12:33:17;;;;;;;17.17;13.07;;;10.70;99.90;;;;;;5172582;28;20442;-50
2023/04/16 12:35:48;;;;;;;21.13;12.33;;;10.50;99.90;;;;;;5175853;28;20948;-50
2023/04/16 12:38:19;;;;;;;13.93;12.30;;;10.50;99.90;;;;;;5173222;28;20480;-54
2023/04/16 12:40:51;;;;;;;19.47;12.13;;;10.40;99.90;;;;;;5177138;28;20212;-48
2023/04/16 12:43:21;;;;;;;20.40;11.70;;;10.50;99.90;;;;;;5176547;28;20439;-49
2023/04/16 12:45:52;;;;;;;14.37;12.03;;;10.40;99.90;;;;;;5174073;28;20482;-50
2023/04/16 12:48:23;;;;;;;12.87;11.00;;;10.50;99.90;;;;;;5173081;28;20208;-49
2023/04/16 12:50:53;;;;;;;16.90;11.67;;;10.50;99.90;;;;;;5174656;28;20188;-51
2023/04/16 12:53:24;;;;;;;15.27;10.90;;;10.60;99.90;;;;;;5172335;28;20243;-53